Data for 08/23/2015

Time Sea-Level Adjusted Pressure Absolute Pressure Temperature Relative Humidity Dew Point   
(mb) (inHg) (mb) (inHg) (C) (F) (%) (C) (F)
00:05 1024 30.24 854 25.22 6.6 43.9 46 -4.1 24.5
00:10 1024 30.24 854 25.22 6.8 44.3 44 -4.5 23.9
00:15 1024 30.24 854 25.22 7.3 45.1 42 -4.6 23.7
00:20 1024 30.24 854 25.22 7.6 45.6 42 -4.5 23.8
00:25 1024 30.24 854 25.22 7.7 45.8 42 -4.5 23.9
00:30 1024 30.24 854 25.22 7.9 46.3 41 -4.4 24
00:35 1024 30.24 854 25.22 8.3 46.9 40 -4.5 24
00:40 1025 30.27 854 25.22 8.3 46.9 41 -4.2 24.4
00:45 1024 30.24 854 25.22 8.1 46.5 42 -4 24.8
00:50 1024 30.24 854 25.22 8 46.4 42 -4.2 24.5
00:55 1024 30.24 854 25.22 8.1 46.6 42 -4.1 24.6
01:00 1024 30.24 854 25.22 8.3 46.9 42 -3.9 24.9
01:05 1025 30.27 854 25.22 8.3 46.9 42 -3.7 25.3
01:10 1024 30.24 854 25.22 8.1 46.7 43 -3.6 25.5
01:15 1024 30.24 854 25.22 7.9 46.2 44 -3.7 25.3
01:20 1024 30.24 854 25.22 7.8 46 44 -3.7 25.3
01:25 1024 30.24 854 25.22 7.7 45.8 44 -3.7 25.4
01:30 1024 30.24 854 25.22 7.6 45.7 45 -3.6 25.5
01:35 1024 30.24 854 25.22 7.5 45.4 45 -3.6 25.4
01:40 1024 30.24 854 25.22 7.2 45 45 -4 24.9
01:45 1025 30.27 854 25.22 7.2 45 45 -3.9 24.9
01:50 1024 30.24 854 25.22 7.4 45.2 45 -3.8 25.2
01:55 1024 30.24 854 25.22 7.3 45.2 45 -3.8 25.2
02:00 1024 30.24 854 25.22 7.4 45.3 45 -3.6 25.5
02:05 1024 30.24 854 25.22 7.2 45 46 -3.6 25.6
02:10 1024 30.24 853 25.19 7 44.7 47 -3.5 25.7
02:15 1024 30.24 853 25.19 6.7 44.1 49 -3.3 26.1
02:20 1024 30.24 853 25.19 6.5 43.7 49 -3.3 26
02:25 1024 30.24 853 25.19 6.5 43.6 50 -3.3 26
02:30 1024 30.24 853 25.19 6.5 43.6 50 -3.3 26
02:35 1024 30.24 853 25.19 6.5 43.7 50 -3.2 26.2
02:40 1024 30.24 853 25.19 6.6 43.9 48 -3.6 25.5
02:45 1024 30.24 853 25.19 6.7 44.1 49 -3.1 26.3
02:50 1024 30.24 853 25.19 6.5 43.8 51 -2.8 26.9
02:55 1024 30.24 853 25.19 6.2 43.2 52 -3 26.6
03:00 1024 30.24 853 25.19 6.3 43.3 50 -3.3 26.1
03:05 1024 30.24 853 25.19 6.7 44 49 -3.4 25.9
03:10 1024 30.24 853 25.19 6.9 44.5 48 -3.3 26
03:15 1024 30.24 853 25.19 7 44.6 49 -2.9 26.8
03:20 1024 30.24 853 25.19 6.7 44.1 50 -2.8 26.9
03:25 1024 30.24 853 25.19 6.4 43.5 51 -2.9 26.8
03:30 1024 30.24 853 25.19 6.2 43.2 52 -2.8 27
03:35 1024 30.24 853 25.19 6 42.9 53 -2.8 26.9
03:40 1024 30.24 853 25.19 5.9 42.6 52 -3.2 26.3
03:45 1024 30.24 853 25.19 6 42.9 52 -3.2 26.3
03:50 1024 30.24 853 25.19 6.2 43.1 52 -3.1 26.5
03:55 1024 30.24 853 25.19 6.2 43.1 52 -3 26.6
04:00 1024 30.24 853 25.19 6.1 43.1 52 -3 26.7
04:05 1024 30.24 853 25.19 6.2 43.2 52 -2.9 26.8
04:10 1024 30.24 853 25.19 6.1 43 53 -2.7 27.1
04:15 1024 30.24 853 25.19 6 42.7 53 -2.8 27
04:20 1024 30.24 853 25.19 6.1 42.9 53 -2.8 26.9
04:25 1024 30.24 853 25.19 6 42.8 52 -3.1 26.4
04:30 1024 30.24 853 25.19 6.1 43 51 -3.2 26.2
04:35 1024 30.24 853 25.19 6.4 43.5 51 -3 26.6
04:40 1024 30.24 853 25.19 6.3 43.3 50 -3.3 26.1
04:45 1024 30.24 853 25.19 6.5 43.7 49 -3.4 25.8
04:50 1024 30.24 853 25.19 6.6 43.8 50 -3.2 26.3
04:55 1024 30.24 853 25.19 6.4 43.5 52 -2.9 26.9
05:00 1024 30.24 853 25.19 6 42.9 51 -3.4 26
05:05 1024 30.24 853 25.19 6.2 43.2 50 -3.3 26
05:10 1024 30.24 853 25.19 6.1 42.9 51 -3.3 26.1
05:15 1024 30.24 853 25.19 5.9 42.6 53 -2.9 26.7
05:20 1024 30.24 853 25.19 5.6 42.1 54 -3.1 26.5
05:25 1024 30.24 853 25.19 4.9 40.8 56 -3.1 26.4
05:30 1024 30.24 853 25.19 4.6 40.3 58 -2.8 26.9
05:35 1024 30.24 853 25.19 3.9 39 62 -2.6 27.3
05:40 1024 30.24 853 25.19 3.9 39.1 60 -3.2 26.3
05:45 1024 30.24 853 25.19 4.3 39.8 53 -4.4 24
05:50 1024 30.24 853 25.19 5.5 41.8 52 -3.5 25.7
05:55 1024 30.24 853 25.19 5.5 42 50 -4 24.9
06:00 1024 30.24 853 25.19 5.5 41.9 55 -2.9 26.8
06:05 1024 30.24 853 25.19 5.2 41.3 53 -3.6 25.5
06:10 1024 30.24 853 25.19 5.3 41.5 51 -4.1 24.6
06:15 1024 30.24 853 25.19 5.9 42.6 51 -3.5 25.6
06:20 1024 30.24 853 25.19 5.9 42.7 52 -3.1 26.4
06:25 1024 30.24 853 25.19 5.8 42.4 53 -3 26.5
06:30 1024 30.24 853 25.19 5.9 42.6 52 -3.3 26
06:35 1024 30.24 853 25.19 6.1 43 51 -3.3 26
06:40 1024 30.24 854 25.22 6.1 43 50 -3.6 25.5
06:45 1024 30.24 854 25.22 6.2 43.2 51 -3.2 26.2
06:50 1024 30.24 854 25.22 6.4 43.4 50 -3.3 26
06:55 1024 30.24 854 25.22 6.5 43.7 51 -2.8 27
07:00 1024 30.24 854 25.22 6.7 44.1 51 -2.7 27.1
07:05 1024 30.24 854 25.22 7 44.5 51 -2.3 27.8
07:10 1024 30.24 854 25.22 7.1 44.8 52 -2 28.4
07:15 1024 30.24 854 25.22 7.4 45.3 52 -1.9 28.5
07:20 1025 30.27 854 25.22 7.7 45.8 52 -1.6 29.2
07:25 1025 30.27 854 25.22 7.9 46.2 51 -1.6 29.1
07:30 1024 30.24 854 25.22 8.4 47.1 49 -1.6 29.1
07:35 1024 30.24 854 25.22 8.6 47.4 50 -1.3 29.7
07:40 1024 30.24 854 25.22 9 48.2 47 -1.6 29.2
07:45 1024 30.24 854 25.22 9.4 48.8 47 -1.3 29.7
07:50 1024 30.24 854 25.22 9.6 49.4 45 -1.6 29.1
07:55 1024 30.24 854 25.22 9.9 49.7 45 -1.5 29.4
08:00 1024 30.24 854 25.22 10.3 50.5 43 -1.6 29.1
08:05 1024 30.24 854 25.22 10.7 51.2 42 -1.5 29.3
08:10 1024 30.24 854 25.22 11 51.8 42 -1.4 29.5
08:15 1024 30.24 854 25.22 11.2 52.1 40 -1.8 28.8
08:20 1024 30.24 853 25.19 11.9 53.4 37 -2.1 28.2
08:25 1024 30.24 853 25.19 11.9 53.3 39 -1.6 29.1
08:30 1024 30.24 853 25.19 12 53.6 39 -1.6 29.2
08:35 1024 30.24 853 25.19 12.1 53.7 38 -1.6 29.1
08:40 1024 30.24 853 25.19 12.3 54.2 37 -2 28.4
08:45 1024 30.24 853 25.19 12.2 53.9 35 -2.6 27.3
08:50 1024 30.24 853 25.19 12.5 54.5 37 -1.8 28.7
08:55 1024 30.24 853 25.19 13 55.3 37 -1.1 29.9
09:00 1024 30.24 853 25.19 13.1 55.6 36 -1.7 28.9
09:05 1024 30.24 853 25.19 13.3 55.9 34 -2.2 28.1
09:10 1024 30.24 853 25.19 13.7 56.7 32 -2.8 26.9
09:15 1024 30.24 853 25.19 14 57.2 32 -2.5 27.4
09:20 1024 30.24 853 25.19 13.4 56.1 32 -2.9 26.7
09:25 1024 30.24 853 25.19 14 57.2 32 -2.2 28
09:30 1024 30.24 853 25.19 13.5 56.2 31 -3.2 26.2
09:35 1024 30.24 853 25.19 13.8 56.9 31 -2.8 26.9
09:40 1024 30.24 853 25.19 14.2 57.5 30 -3 26.7
09:45 1024 30.24 853 25.19 15 58.9 29 -2.8 27
09:50 1024 30.24 853 25.19 15.8 60.4 29 -2.3 27.8
09:55 1024 30.24 853 25.19 15.7 60.2 29 -2 28.5
10:00 1024 30.24 853 25.19 15.6 60.1 29 -2.2 28
10:05 1024 30.24 853 25.19 16.3 61.3 28 -2.3 27.9
10:10 1024 30.24 853 25.19 16.6 61.9 26 -3.1 26.4
10:15 1024 30.24 853 25.19 16.9 62.4 27 -2.1 28.2
10:20 1024 30.24 853 25.19 17.2 62.9 26 -2.1 28.2
10:25 1024 30.24 853 25.19 17.2 63 26 -2.5 27.5
10:30 1024 30.24 853 25.19 17.1 62.8 26 -2.7 27.2
10:35 1024 30.24 853 25.19 17.4 63.3 26 -2.1 28.2
10:40 1024 30.24 853 25.19 17.4 63.4 26 -2.1 28.2
10:45 1024 30.24 853 25.19 17.7 63.8 26 -2 28.3
10:50 1024 30.24 853 25.19 18.4 65 25 -2.1 28.2
10:55 1024 30.24 853 25.19 18.4 65.1 24 -2.3 27.8
11:00 1024 30.24 853 25.19 17.5 63.5 25 -2.8 27
11:05 1024 30.24 853 25.19 18.3 65 24 -2.4 27.7
11:10 1024 30.24 853 25.19 18.9 66.1 23 -2.7 27.1
11:15 1024 30.24 853 25.19 18.9 66 24 -1.8 28.7
11:20 1024 30.24 853 25.19 18.3 65 22 -3.4 26
11:25 1024 30.24 853 25.19 19 66.2 23 -2.2 28.1
11:30 1023 30.21 853 25.19 19.2 66.5 22 -2.6 27.3
11:35 1023 30.21 853 25.19 19.7 67.4 22 -2.3 27.9
11:40 1023 30.21 853 25.19 19.7 67.4 23 -1.8 28.8
11:45 1023 30.21 852 25.16 19.5 67.2 23 -2.3 27.9
11:50 1023 30.21 852 25.16 20.3 68.6 21 -2.7 27.1
11:55 1023 30.21 852 25.16 19.9 67.8 24 -1.2 29.9
12:00 1023 30.21 852 25.16 20.1 68.1 25 -0.5 31.1
12:05 1023 30.21 852 25.16 19.8 67.6 24 -1 30.2
12:10 1023 30.21 852 25.16 20.3 68.6 24 -1 30.2
12:15 1023 30.21 852 25.16 20.9 69.7 23 -0.7 30.7
12:20 1023 30.21 852 25.16 21.7 71.1 21 -1.6 29.2
12:25 1023 30.21 852 25.16 22 71.7 22 -0.7 30.8
12:30 1023 30.21 852 25.16 22.8 73 20 -1.4 29.5
12:35 1023 30.21 852 25.16 22.5 72.5 21 -0.8 30.6
12:40 1023 30.21 852 25.16 21.7 71.1 22 -1 30.2
12:45 1023 30.21 852 25.16 22.4 72.4 19 -2.2 28.1
12:50 1023 30.21 852 25.16 22.8 73 18 -2.3 27.9
12:55 1023 30.21 852 25.16 22.6 72.6 18 -2.7 27.2
13:00 1023 30.21 852 25.16 22 71.7 21 -1.3 29.7
13:05 1023 30.21 852 25.16 21.8 71.3 21 -1.5 29.3
13:10 1023 30.21 852 25.16 22.6 72.6 21 -0.7 30.7
13:15 1022 30.18 852 25.16 23.5 74.2 20 -0.6 30.9
13:20 1022 30.18 852 25.16 23.4 74.2 20 -0.3 31.4
13:25 1022 30.18 852 25.16 23.2 73.7 18 -2 28.5
13:30 1022 30.18 852 25.16 22.9 73.2 19 -1.5 29.3
13:35 1022 30.18 852 25.16 22.9 73.2 20 -1.3 29.6
13:40 1022 30.18 851 25.13 24.4 75.9 17 -2.3 27.8
13:45 1022 30.18 851 25.13 24.4 76 18 -1.5 29.4
13:50 1022 30.18 851 25.13 24.7 76.5 17 -1.7 29
13:55 1022 30.18 851 25.13 24.4 76 19 -0.6 30.9
14:00 1022 30.18 851 25.13 24.4 76 18 -1.1 30
14:05 1022 30.18 851 25.13 24.3 75.7 16 -3.2 26.2
14:10 1022 30.18 851 25.13 23.8 74.9 18 -1.9 28.6
14:15 1022 30.18 851 25.13 24.3 75.7 16 -2.6 27.4
14:20 1022 30.18 851 25.13 25.3 77.5 16 -2.5 27.6
14:25 1022 30.18 851 25.13 25.1 77.2 15 -2.8 27
14:30 1022 30.18 851 25.13 25.1 77.1 16 -2.7 27.2
14:35 1022 30.18 851 25.13 25.4 77.8 15 -2.7 27.2
14:40 1022 30.18 851 25.13 25.4 77.7 14 -3.6 25.5
14:45 1022 30.18 851 25.13 25.2 77.3 14 -3.5 25.6
14:50 1022 30.18 851 25.13 25 77 14 -4.5 23.9
14:55 1022 30.18 851 25.13 25.3 77.6 14 -3.5 25.7
15:00 1022 30.18 851 25.13 25.6 78.1 14 -3.9 25
15:05 1022 30.18 851 25.13 25 77 13 -5.5 22.2
15:10 1022 30.18 851 25.13 25.5 78 12 -5.5 22.2
15:15 1022 30.18 851 25.13 25.5 78 13 -5.1 22.8
15:20 1022 30.18 851 25.13 25.7 78.3 12 -5.4 22.3
15:25 1021 30.15 851 25.13 25.7 78.2 11 -6.2 20.8
15:30 1021 30.15 851 25.13 25.6 78.1 12 -5.9 21.3
15:35 1021 30.15 851 25.13 25 77 13 -5.4 22.3
15:40 1021 30.15 851 25.13 25.5 78 13 -5 23.1
15:45 1021 30.15 851 25.13 26 78.8 11 -6.2 20.9
15:50 1021 30.15 850 25.1 25.6 78 13 -5.1 22.9
15:55 1021 30.15 850 25.1 25.8 78.5 11 -6.1 21
16:00 1021 30.15 850 25.1 25.3 77.5 12 -5.9 21.4
16:05 1021 30.15 850 25.1 25.7 78.3 12 -5.9 21.3
16:10 1021 30.15 850 25.1 25.8 78.4 12 -5.9 21.4
16:15 1021 30.15 850 25.1 26 78.8 12 -5.1 22.8
16:20 1021 30.15 850 25.1 26.1 79 11 -7 19.5
16:25 1021 30.15 850 25.1 25.3 77.6 12 -6.1 21
16:30 1021 30.15 850 25.1 25.8 78.4 12 -5.1 22.7
16:35 1021 30.15 850 25.1 26.1 79 11 -6.5 20.2
16:40 1021 30.15 850 25.1 25.8 78.4 12 -5.6 22
16:45 1021 30.15 850 25.1 26 78.8 13 -4 24.7
16:50 1021 30.15 850 25.1 25.9 78.6 12 -5.4 22.3
16:55 1021 30.15 850 25.1 26 78.9 12 -4.8 23.4
17:00 1021 30.15 850 25.1 26 78.9 13 -4.6 23.7
17:05 1021 30.15 850 25.1 25.7 78.3 13 -4.9 23.2
17:10 1021 30.15 850 25.1 25.7 78.2 12 -5.6 22
17:15 1021 30.15 850 25.1 25.7 78.2 13 -4.7 23.5
17:20 1021 30.15 850 25.1 25.7 78.2 12 -5.4 22.4
17:25 1021 30.15 850 25.1 25.6 78.2 13 -4.5 23.9
17:30 1021 30.15 850 25.1 25.6 78.1 14 -4.1 24.6
17:35 1021 30.15 850 25.1 25.6 78 13 -4.4 24.1
17:40 1021 30.15 850 25.1 25.4 77.8 13 -4.3 24.2
17:45 1021 30.15 850 25.1 25.2 77.3 13 -4.7 23.6
17:50 1021 30.15 850 25.1 24.9 76.9 14 -4.3 24.2
17:55 1021 30.15 850 25.1 24.8 76.6 13 -4.9 23.2
18:00 1021 30.15 850 25.1 24.7 76.4 13 -5.1 22.9
18:05 1021 30.15 850 25.1 24.6 76.3 14 -4.8 23.3
18:10 1021 30.15 850 25.1 24.5 76.1 13 -5.8 21.6
18:15 1021 30.15 850 25.1 24.4 75.8 14 -4.5 23.8
18:20 1021 30.15 850 25.1 24.3 75.7 14 -4.8 23.4
18:25 1021 30.15 850 25.1 24.2 75.5 15 -4 24.8
18:30 1021 30.15 850 25.1 24 75.3 15 -4.4 24.1
18:35 1021 30.15 850 25.1 23.9 75 16 -3.2 26.3
18:40 1021 30.15 850 25.1 23.7 74.7 18 -1.7 29
18:45 1021 30.15 850 25.1 23 73.4 20 -0.9 30.4
18:50 1021 30.15 850 25.1 22.5 72.6 21 -0.8 30.5
18:55 1021 30.15 850 25.1 22.2 72 25 1.3 34.4
19:00 1021 30.15 851 25.13 21.5 70.7 27 1.9 35.4
19:05 1021 30.15 851 25.13 20.8 69.4 25 0.3 32.5
19:10 1021 30.15 851 25.13 20.2 68.3 25 -0.4 31.2
19:15 1021 30.15 851 25.13 19.7 67.4 26 -0.2 31.7
19:20 1021 30.15 851 25.13 19.2 66.6 27 0 32.1
19:25 1021 30.15 851 25.13 18.8 65.8 28 -0.1 31.9
19:30 1021 30.15 851 25.13 18.7 65.6 28 -0.1 31.7
19:35 1021 30.15 851 25.13 18.4 65.1 28 -0.2 31.6
19:40 1022 30.18 851 25.13 18.1 64.7 32 1.5 34.7
19:45 1022 30.18 851 25.13 17.8 64 31 0.7 33.3
19:50 1022 30.18 851 25.13 17.4 63.4 30 -0.3 31.4
19:55 1022 30.18 851 25.13 17.7 63.9 26 -2.1 28.2
20:00 1022 30.18 851 25.13 18.3 64.9 24 -2.5 27.6
20:05 1022 30.18 851 25.13 18.5 65.2 25 -1.8 28.8
20:10 1022 30.18 851 25.13 17.9 64.2 27 -1.2 29.9
20:15 1022 30.18 851 25.13 17.3 63.1 29 -0.8 30.6
20:20 1022 30.18 851 25.13 16.8 62.3 28 -1.8 28.8
20:25 1022 30.18 851 25.13 17.1 62.8 25 -3 26.6
20:30 1022 30.18 851 25.13 17.7 63.9 25 -2.3 27.9
20:35 1022 30.18 851 25.13 17.2 62.9 27 -1.9 28.6
20:40 1022 30.18 851 25.13 16.6 61.9 28 -1.8 28.8
20:45 1022 30.18 851 25.13 16.3 61.3 29 -1.5 29.4
20:50 1022 30.18 851 25.13 16.1 61 29 -2.1 28.3
20:55 1022 30.18 851 25.13 16.1 61 28 -2.3 27.8
21:00 1022 30.18 851 25.13 16.2 61.2 27 -2.6 27.4
21:05 1022 30.18 851 25.13 16.4 61.4 27 -2.4 27.6
21:10 1022 30.18 851 25.13 16.2 61.2 28 -2.3 27.8
21:15 1022 30.18 851 25.13 16.1 61 28 -2.3 27.8
21:20 1022 30.18 851 25.13 16 60.8 27 -2.7 27.2
21:25 1022 30.18 851 25.13 16 60.8 28 -2.6 27.3
21:30 1022 30.18 851 25.13 16 60.8 28 -2.4 27.6
21:35 1022 30.18 851 25.13 15.8 60.4 28 -2.5 27.5
21:40 1022 30.18 851 25.13 15.6 60 29 -2.4 27.7
21:45 1022 30.18 851 25.13 15.3 59.5 29 -2.4 27.7
21:50 1022 30.18 851 25.13 15.2 59.3 33 -0.9 30.4
21:55 1022 30.18 851 25.13 15.1 59.2 29 -2.5 27.5
22:00 1022 30.18 851 25.13 15 58.9 30 -2.4 27.7
22:05 1022 30.18 851 25.13 14.7 58.5 31 -2.4 27.8
22:10 1022 30.18 851 25.13 14.5 58 31 -2.5 27.5
22:15 1022 30.18 851 25.13 14.5 58 31 -2.6 27.3
22:20 1022 30.18 851 25.13 14.6 58.3 30 -2.7 27.1
22:25 1022 30.18 851 25.13 14.8 58.6 29 -3.2 26.3
22:30 1022 30.18 851 25.13 15.7 60.2 26 -3.4 25.8
22:35 1022 30.18 851 25.13 15.9 60.7 27 -3 26.6
22:40 1022 30.18 851 25.13 15.8 60.5 27 -3.2 26.2
22:45 1022 30.18 851 25.13 16 60.8 26 -3.4 25.9
22:50 1022 30.18 851 25.13 15.7 60.3 29 -2.4 27.7
22:55 1022 30.18 851 25.13 15 59.1 30 -2.5 27.5
23:00 1022 30.18 851 25.13 14.7 58.4 30 -2.7 27.1
23:05 1022 30.18 851 25.13 14.6 58.3 31 -2.2 28
23:10 1022 30.18 851 25.13 14.5 58.2 30 -2.5 27.4
23:15 1022 30.18 851 25.13 14.4 58 30 -2.9 26.7
23:20 1022 30.18 851 25.13 14.6 58.3 29 -3.1 26.4
23:25 1022 30.18 851 25.13 14.7 58.5 29 -2.8 26.9
23:30 1022 30.18 851 25.13 14.5 58 30 -2.6 27.3
23:35 1022 30.18 851 25.13 14.2 57.6 31 -2.7 27.1
23:40 1022 30.18 851 25.13 14.1 57.4 31 -2.7 27.2
23:45 1022 30.18 851 25.13 14.1 57.3 31 -2.6 27.3
23:50 1022 30.18 851 25.13 14 57.2 31 -2.8 27
23:55 1022 30.18 851 25.13 14.1 57.3 31 -2.6 27.2
24:00 1022 30.18 851 25.13 14 57.2 31 -2.6 27.3